createdAt,value
2022-09-25T00:02:09.809Z,11.29
2022-09-25T00:07:12.719Z,11.25
2022-09-25T00:12:15.632Z,11.19
2022-09-25T00:17:18.472Z,11.11
2022-09-25T00:22:24.953Z,11.04
2022-09-25T00:27:27.852Z,10.98
2022-09-25T00:32:31.042Z,10.94
2022-09-25T00:37:35.572Z,10.98
2022-09-25T00:42:38.514Z,11.02
2022-09-25T00:48:10.761Z,11.00
2022-09-25T00:53:38.464Z,10.96
2022-09-25T00:58:42.312Z,10.93
2022-09-25T01:03:46.470Z,10.89
2022-09-25T01:08:50.042Z,10.85
2022-09-25T01:13:55.660Z,10.79
2022-09-25T01:19:14.150Z,10.76
2022-09-25T01:24:25.570Z,10.73
2022-09-25T01:29:36.967Z,10.70
2022-09-25T01:34:56.758Z,10.70
2022-09-25T01:40:33.529Z,10.73
2022-09-25T01:45:59.693Z,10.71
2022-09-25T01:51:08.415Z,10.69
2022-09-25T01:56:20.523Z,10.67
2022-09-25T02:01:29.361Z,10.65
2022-09-25T02:06:33.347Z,10.63
2022-09-25T02:11:42.924Z,10.61
2022-09-25T02:16:50.271Z,10.60
2022-09-25T02:22:05.512Z,10.60
2022-09-25T02:27:08.348Z,10.65
2022-09-25T02:32:17.417Z,10.76
2022-09-25T02:37:20.364Z,10.85
2022-09-25T02:42:55.487Z,10.89
2022-09-25T02:48:32.481Z,10.91
2022-09-25T02:53:41.987Z,10.87
2022-09-25T02:58:51.107Z,10.84
2022-09-25T03:03:57.569Z,10.82
2022-09-25T03:09:02.667Z,10.82
2022-09-25T03:14:06.105Z,10.80
2022-09-25T03:19:09.084Z,10.86
2022-09-25T03:24:12.185Z,10.95
2022-09-25T03:29:17.456Z,11.00
2022-09-25T03:34:21.601Z,11.03
2022-09-25T03:39:24.493Z,11.05
2022-09-25T03:44:27.335Z,11.06
2022-09-25T03:49:30.130Z,11.07
2022-09-25T03:54:32.935Z,11.05
2022-09-25T03:59:35.877Z,11.03
2022-09-25T04:04:39.008Z,11.03
2022-09-25T04:09:41.888Z,11.09
2022-09-25T04:14:46.071Z,11.17
2022-09-25T04:19:49.382Z,11.23
2022-09-25T04:24:52.530Z,11.24
2022-09-25T04:29:55.547Z,11.25
2022-09-25T04:34:58.641Z,11.21
2022-09-25T04:40:01.887Z,11.17
2022-09-25T04:45:05.028Z,11.12
2022-09-25T04:50:08.386Z,11.08
2022-09-25T04:55:11.404Z,11.32
2022-09-25T05:00:18.775Z,11.82
2022-09-25T05:05:21.844Z,11.81
2022-09-25T05:10:27.850Z,11.73
2022-09-25T05:15:33.230Z,11.67
2022-09-25T05:20:36.350Z,11.62
2022-09-25T05:25:39.257Z,11.57
2022-09-25T05:30:43.774Z,11.54
2022-09-25T05:35:46.976Z,11.52
2022-09-25T05:40:50.295Z,11.54
2022-09-25T05:45:54.994Z,11.66
2022-09-25T05:50:58.689Z,11.78
2022-09-25T05:56:03.774Z,11.89
2022-09-25T06:01:07.177Z,11.97
2022-09-25T06:06:10.441Z,12.05
2022-09-25T06:11:13.338Z,12.10
2022-09-25T06:16:19.662Z,12.16
2022-09-25T06:21:22.707Z,12.24
2022-09-25T06:26:26.158Z,12.36
2022-09-25T06:31:29.113Z,12.53
2022-09-25T06:36:33.278Z,12.72
2022-09-25T06:41:36.824Z,12.87
2022-09-25T06:46:39.775Z,13.01
2022-09-25T06:51:42.787Z,13.14
2022-09-25T06:56:49.969Z,13.23
2022-09-25T07:01:53.068Z,13.30
2022-09-25T07:06:58.613Z,13.60
2022-09-25T07:12:01.829Z,13.83
2022-09-25T07:17:04.753Z,13.92
2022-09-25T07:22:07.649Z,13.98
2022-09-25T07:27:10.510Z,14.03
2022-09-25T07:32:13.322Z,14.10
2022-09-25T07:37:17.029Z,14.15
2022-09-25T07:42:19.914Z,14.19
2022-09-25T07:47:22.791Z,14.26
2022-09-25T07:52:25.727Z,14.32
2022-09-25T07:57:28.628Z,14.39
2022-09-25T08:02:32.002Z,14.45
2022-09-25T08:07:34.934Z,14.53
2022-09-25T08:12:37.809Z,14.65
2022-09-25T08:17:41.411Z,14.76
2022-09-25T08:22:44.233Z,14.84
2022-09-25T08:27:47.187Z,14.96
2022-09-25T08:32:50.536Z,15.01
2022-09-25T08:37:53.890Z,15.07
2022-09-25T08:42:57.597Z,15.11
2022-09-25T08:48:19.761Z,15.13
2022-09-25T08:53:26.378Z,15.13
2022-09-25T08:58:32.200Z,15.11
2022-09-25T09:03:46.272Z,15.15
2022-09-25T09:09:14.397Z,15.23
2022-09-25T09:14:20.680Z,15.29
2022-09-25T09:19:23.678Z,15.31
2022-09-25T09:24:53.866Z,15.45
2022-09-25T09:30:23.982Z,15.48
2022-09-25T09:35:52.441Z,15.41
2022-09-25T09:41:31.087Z,15.33
2022-09-25T09:46:57.461Z,15.25
2022-09-25T09:52:11.369Z,15.22
2022-09-25T09:57:26.664Z,15.19
2022-09-25T10:02:51.294Z,15.15
2022-09-25T10:07:54.496Z,15.12
2022-09-25T10:13:04.069Z,15.10
2022-09-25T10:18:09.462Z,15.08
2022-09-25T10:23:33.751Z,15.06
2022-09-25T10:28:36.925Z,15.05
2022-09-25T10:33:39.859Z,15.10
2022-09-25T10:38:53.446Z,15.20
2022-09-25T10:44:02.545Z,15.28
2022-09-25T10:49:33.513Z,15.34
2022-09-25T10:54:43.654Z,15.36
2022-09-25T10:59:52.228Z,15.39
2022-09-25T11:04:57.171Z,15.43
2022-09-25T11:10:00.617Z,15.43
2022-09-25T11:15:08.977Z,15.43
2022-09-25T11:20:30.233Z,15.48
2022-09-25T11:25:48.749Z,15.60
2022-09-25T11:31:22.626Z,15.72
2022-09-25T11:36:31.912Z,15.86
2022-09-25T11:41:43.948Z,15.91
2022-09-25T11:47:11.859Z,15.95
2022-09-25T11:52:37.360Z,15.99
2022-09-25T11:57:56.610Z,16.03
2022-09-25T12:03:20.531Z,16.09
2022-09-25T12:08:26.937Z,16.11
2022-09-25T12:13:41.598Z,16.20
2022-09-25T12:19:03.205Z,16.30
2022-09-25T12:24:17.876Z,16.40
2022-09-25T12:29:26.191Z,16.47
2022-09-25T12:34:34.602Z,16.51
2022-09-25T12:39:44.849Z,16.55
2022-09-25T12:45:02.037Z,16.59
2022-09-25T12:50:17.008Z,16.63
2022-09-25T12:55:26.795Z,16.67
2022-09-25T13:00:33.026Z,16.69
2022-09-25T13:05:50.359Z,16.69
2022-09-25T13:11:02.456Z,16.68
2022-09-25T13:16:05.806Z,16.75
2022-09-25T13:21:26.152Z,16.79
2022-09-25T13:26:30.362Z,16.84
2022-09-25T13:31:37.169Z,16.85
2022-09-25T13:36:53.587Z,16.86
2022-09-25T13:41:57.008Z,16.86
2022-09-25T13:47:22.089Z,16.86
2022-09-25T13:52:36.868Z,16.82
2022-09-25T13:57:58.441Z,16.74
2022-09-25T14:03:03.282Z,16.67
2022-09-25T14:08:15.973Z,16.60
2022-09-25T14:13:25.404Z,16.54
2022-09-25T14:18:44.023Z,16.52
2022-09-25T14:23:52.306Z,16.53
2022-09-25T14:28:57.297Z,16.53
2022-09-25T14:34:41.338Z,16.52
2022-09-25T14:40:02.338Z,16.47
2022-09-25T14:45:34.936Z,16.42
2022-09-25T14:50:45.805Z,16.36
2022-09-25T14:55:53.094Z,16.30
2022-09-25T15:01:02.087Z,16.26
2022-09-25T15:06:05.136Z,16.27
2022-09-25T15:11:16.385Z,16.30
2022-09-25T15:16:44.034Z,16.32
2022-09-25T15:21:47.695Z,16.32
2022-09-25T15:27:03.078Z,16.29
2022-09-25T15:32:06.621Z,16.24
2022-09-25T15:37:29.479Z,16.19
2022-09-25T15:42:33.124Z,16.12
2022-09-25T15:47:35.907Z,16.07
2022-09-25T15:52:39.305Z,16.05
2022-09-25T15:57:42.443Z,16.09
2022-09-25T16:03:17.333Z,16.11
2022-09-25T16:08:36.921Z,16.12
2022-09-25T16:13:43.750Z,16.10
2022-09-25T16:18:47.075Z,16.06
2022-09-25T16:24:07.557Z,16.01
2022-09-25T16:29:11.521Z,15.94
2022-09-25T16:34:39.108Z,15.91
2022-09-25T16:39:43.680Z,15.89
2022-09-25T16:44:47.236Z,15.89
2022-09-25T16:49:50.549Z,15.87
2022-09-25T16:54:57.023Z,15.85
2022-09-25T17:00:00.018Z,15.82
2022-09-25T17:05:11.151Z,15.76
2022-09-25T17:10:16.508Z,15.72
2022-09-25T17:15:27.628Z,15.73
2022-09-25T17:20:31.316Z,15.76
2022-09-25T17:25:45.857Z,15.76
2022-09-25T17:30:48.822Z,15.72
2022-09-25T17:36:04.196Z,15.67
2022-09-25T17:41:34.125Z,15.64
2022-09-25T17:46:37.380Z,15.63
2022-09-25T17:51:40.922Z,15.63
2022-09-25T17:56:45.473Z,15.68
2022-09-25T18:01:48.459Z,15.78
2022-09-25T18:06:52.192Z,15.76
2022-09-25T18:11:55.187Z,15.71
2022-09-25T18:16:58.307Z,15.65
2022-09-25T18:22:21.897Z,15.58
2022-09-25T18:27:27.805Z,15.55
2022-09-25T18:32:31.785Z,15.54
2022-09-25T18:37:35.131Z,15.55
2022-09-25T18:42:38.440Z,15.53
2022-09-25T18:47:42.540Z,15.50
2022-09-25T18:52:45.668Z,15.46
2022-09-25T18:57:48.667Z,15.41
2022-09-25T19:02:51.657Z,15.46
2022-09-25T19:07:54.963Z,15.48
2022-09-25T19:12:57.929Z,15.61
2022-09-25T19:18:00.792Z,15.76
2022-09-25T19:23:03.760Z,15.68
2022-09-25T19:28:07.951Z,15.55
2022-09-25T19:33:10.858Z,15.47
2022-09-25T19:38:13.769Z,15.42
2022-09-25T19:43:16.829Z,15.38
2022-09-25T19:48:20.981Z,15.37
2022-09-25T19:53:23.852Z,15.35
2022-09-25T19:58:26.723Z,15.30
2022-09-25T20:03:29.934Z,15.25
2022-09-25T20:08:33.413Z,15.19
2022-09-25T20:13:36.336Z,15.17
2022-09-25T20:18:39.480Z,15.18
2022-09-25T20:23:42.572Z,15.18
2022-09-25T20:28:46.549Z,15.16
2022-09-25T20:33:49.561Z,15.13
2022-09-25T20:38:54.134Z,15.15
2022-09-25T20:43:58.069Z,15.21
2022-09-25T20:49:02.376Z,15.19
2022-09-25T20:54:07.550Z,15.15
2022-09-25T20:59:11.387Z,15.10
2022-09-25T21:04:18.271Z,15.04
2022-09-25T21:09:24.122Z,14.97
2022-09-25T21:14:28.571Z,14.89
2022-09-25T21:19:31.947Z,14.82
2022-09-25T21:24:35.946Z,14.78
2022-09-25T21:29:39.251Z,14.76
2022-09-25T21:34:42.185Z,14.71
2022-09-25T21:39:45.025Z,14.68
2022-09-25T21:44:48.110Z,14.61
2022-09-25T21:49:51.112Z,14.52
2022-09-25T21:54:54.721Z,14.43
2022-09-25T21:59:57.564Z,14.35
2022-09-25T22:05:02.178Z,14.30
2022-09-25T22:10:07.138Z,14.25
2022-09-25T22:15:10.437Z,14.16
2022-09-25T22:20:13.729Z,14.07
2022-09-25T22:25:16.700Z,14.02
2022-09-25T22:30:19.786Z,14.00
2022-09-25T22:35:22.725Z,14.01
2022-09-25T22:40:25.653Z,14.04
2022-09-25T22:45:29.377Z,14.04
2022-09-25T22:50:32.245Z,14.03
2022-09-25T22:55:35.094Z,14.02
2022-09-25T23:00:42.983Z,14.01
2022-09-25T23:05:47.553Z,13.97
2022-09-25T23:11:06.638Z,13.93
2022-09-25T23:16:12.948Z,13.89
2022-09-25T23:21:16.856Z,13.83
2022-09-25T23:26:20.392Z,13.77
2022-09-25T23:31:27.147Z,13.72
2022-09-25T23:36:32.705Z,13.64
2022-09-25T23:41:39.838Z,13.53
2022-09-25T23:46:46.231Z,13.41
2022-09-25T23:51:51.826Z,13.35
2022-09-25T23:56:57.765Z,13.31
